Time;durP1;ratioP1;P1;durP2;ratioP2;P2;SDS_P1;SDS_P2;PMS_P1;PMS_P2;Temp;Humidity;BMP_temperature;BMP_pressure;BME280_temperature;BME280_humidity;BME280_pressure;Samples;Min_cycle;Max_cycle;Signal;HPM_P1;HPM_P2
2024/04/18 16:20:23;;;;;;;;;;;;;;;;;;;;;
2024/04/18 16:28:51;;;;;;;6.22;2.28;;;;;;;12.63;39.57;101683.38;4692949;30;20065;-56
2024/04/18 18:30:41;;;;;;;5.57;2.50;;;;;;;12.24;40.96;101694.00;4841440;29;20061;-58
2024/04/18 18:33:26;;;;;;;9.30;4.78;;;;;;;12.23;40.79;101695.13;4902163;28;20066;-61
2024/04/18 18:35:52;;;;;;;5.63;2.60;;;;;;;12.00;40.79;101702.38;4984584;28;20205;-60
2024/04/18 18:38:19;;;;;;;7.63;3.45;;;;;;;12.29;40.90;101703.03;4981821;28;20077;-60
2024/04/18 18:40:45;;;;;;;8.98;3.70;;;;;;;12.44;40.87;101697.28;4981765;28;20058;-60
2024/04/18 18:43:23;;;;;;;6.85;3.03;;;;;;;12.47;40.41;101698.59;4990012;28;20767;-59
2024/04/18 18:45:51;;;;;;;12.20;4.07;;;;;;;12.33;40.88;101692.19;4985880;28;20062;-60
2024/04/18 18:48:17;;;;;;;6.57;3.20;;;;;;;12.53;40.99;101694.63;4969398;28;20073;-62
2024/04/18 18:51:04;;;;;;;8.00;3.33;;;;;;;13.02;40.35;101688.50;4971553;28;20066;-57
2024/04/18 18:53:30;;;;;;;5.45;2.00;;;;;;;13.07;39.75;101688.41;5012845;28;20073;-57
2024/04/18 18:55:56;;;;;;;7.40;2.78;;;;;;;12.82;40.29;101691.59;4973973;28;20058;-59
2024/04/18 18:58:42;;;;;;;4.90;2.45;;;;;;;12.76;40.69;101692.84;4975688;28;20088;-58
2024/04/18 19:01:09;;;;;;;5.75;2.50;;;;;;;12.78;40.94;101688.63;4997440;28;20069;-58
2024/04/18 19:03:36;;;;;;;5.93;2.45;;;;;;;12.83;40.86;101691.28;5052361;28;20087;-59
2024/04/18 19:06:02;;;;;;;6.28;2.33;;;;;;;12.97;40.66;101683.84;5048519;28;20061;-59
2024/04/18 19:08:28;;;;;;;5.72;2.42;;;;;;;13.04;40.80;101689.03;5035068;28;20056;-58
2024/04/18 19:10:55;;;;;;;6.78;2.70;;;;;;;13.18;40.84;101687.88;5034388;28;20063;-59
2024/04/18 19:13:21;;;;;;;6.03;2.80;;;;;;;12.98;41.56;101684.66;5029499;28;20060;-55
2024/04/18 19:15:57;;;;;;;9.23;3.13;;;;;;;12.86;41.75;101690.72;5048948;28;20063;-59
2024/04/18 19:18:24;;;;;;;7.70;2.85;;;;;;;13.11;41.49;101678.38;5046512;28;20065;-58
2024/04/18 19:20:50;;;;;;;8.68;3.33;;;;;;;13.16;41.31;101681.03;5051738;28;20044;-60
2024/04/18 19:23:23;;;;;;;11.18;3.80;;;;;;;13.00;41.82;101688.78;5035225;28;20065;-60
2024/04/18 19:25:49;;;;;;;16.77;5.70;;;;;;;13.12;42.08;101680.84;4997289;28;20067;-57
2024/04/18 19:28:15;;;;;;;16.88;8.25;;;;;;;13.22;42.05;101680.63;5034738;28;20503;-58
2024/04/18 19:30:41;;;;;;;13.27;8.25;;;;;;;13.26;42.23;101684.41;5039066;28;20057;-60
2024/04/18 19:33:08;;;;;;;16.38;8.25;;;;;;;13.24;42.25;101680.31;5041217;28;20055;-59
2024/04/18 19:35:34;;;;;;;14.55;6.50;;;;;;;13.18;42.34;101679.59;5072634;28;20052;-61
2024/04/18 19:38:00;;;;;;;10.93;5.18;;;;;;;13.18;42.46;101682.34;5033569;28;20065;-60
2024/04/18 19:40:46;;;;;;;15.02;9.45;;;;;;;13.13;42.56;101684.41;5044251;28;20056;-59
2024/04/18 19:43:12;;;;;;;15.00;8.15;;;;;;;13.18;42.69;101685.13;5056154;28;20060;-60
2024/04/18 19:45:39;;;;;;;12.40;6.30;;;;;;;13.07;42.89;101688.41;5056716;28;20511;-61
2024/04/18 19:48:06;;;;;;;11.98;6.28;;;;;;;12.96;43.21;101684.97;5061060;28;20527;-61
2024/04/18 19:50:35;;;;;;;10.10;5.35;;;;;;;12.98;43.22;101688.25;5035580;28;20579;-61
2024/04/18 19:53:21;;;;;;;11.15;5.00;;;;;;;12.87;43.72;101691.50;5052064;28;20049;-61
2024/04/18 19:55:49;;;;;;;10.63;5.90;;;;;;;12.80;43.72;101691.09;5068109;28;20068;-60
2024/04/18 19:58:16;;;;;;;10.85;5.43;;;;;;;12.80;44.06;101688.31;5061854;28;20068;-58
2024/04/18 20:00:43;;;;;;;11.80;5.28;;;;;;;12.85;43.91;101694.59;5067057;28;20052;-60
2024/04/18 20:03:10;;;;;;;13.25;5.90;;;;;;;12.89;44.11;101686.50;5020553;28;20436;-59
2024/04/18 20:05:38;;;;;;;11.65;5.60;;;;;;;12.79;44.46;101692.22;5032553;28;20072;-60
2024/04/18 20:08:05;;;;;;;10.27;5.05;;;;;;;12.65;45.00;101691.38;5032463;28;20080;-60
2024/04/18 20:10:32;;;;;;;10.30;5.28;;;;;;;12.58;45.29;101686.25;5050245;28;20063;-59
2024/04/18 20:12:58;;;;;;;11.00;5.18;;;;;;;12.56;45.45;101693.19;5052280;28;20056;-59
2024/04/18 20:15:25;;;;;;;13.18;6.15;;;;;;;12.30;46.36;101687.28;5052581;28;20075;-59
2024/04/18 20:17:51;;;;;;;13.40;5.95;;;;;;;12.31;46.95;101686.97;5050627;28;20060;-61
2024/04/18 20:20:18;;;;;;;9.85;5.55;;;;;;;12.02;47.47;101694.63;5052161;28;20091;-60
2024/04/18 20:22:44;;;;;;;9.95;5.53;;;;;;;12.14;47.58;101696.91;5068302;28;20060;-59
2024/04/18 20:25:10;;;;;;;10.68;5.47;;;;;;;12.36;47.31;101686.09;5056839;28;20064;-61
2024/04/18 20:27:39;;;;;;;10.75;5.07;;;;;;;12.32;47.23;101685.88;5051295;28;20056;-59
2024/04/18 20:30:06;;;;;;;10.80;5.00;;;;;;;12.24;48.00;101685.72;5037106;28;20939;-58
2024/04/18 20:32:32;;;;;;;13.10;5.68;;;;;;;12.22;47.53;101682.44;5036277;28;20044;-56
2024/04/18 20:34:59;;;;;;;12.23;6.60;;;;;;;12.29;47.59;101683.69;5055251;28;20508;-58
2024/04/18 20:37:27;;;;;;;13.13;6.82;;;;;;;12.36;47.55;101683.31;5046673;28;20049;-59
2024/04/18 20:39:54;;;;;;;8.57;5.22;;;;;;;12.41;47.24;101686.00;5062617;28;20067;-59
2024/04/18 20:42:20;;;;;;;9.95;5.57;;;;;;;12.38;47.50;101687.41;5070965;28;20060;-57
2024/04/18 20:45:03;;;;;;;8.95;5.30;;;;;;;12.20;48.05;101681.94;5072480;28;20064;-61
2024/04/18 20:47:30;;;;;;;8.98;5.15;;;;;;;12.22;47.81;101680.47;5070800;28;20060;-60
2024/04/18 20:49:56;;;;;;;11.55;4.75;;;;;;;12.11;48.10;101678.19;5051085;28;20052;-59
2024/04/18 20:52:22;;;;;;;7.50;4.20;;;;;;;11.65;49.38;101679.97;5051098;28;20629;-59
2024/04/18 20:54:49;;;;;;;10.75;4.35;;;;;;;11.94;48.74;101687.00;5061676;28;20059;-58
2024/04/18 20:57:15;;;;;;;9.00;4.35;;;;;;;12.03;48.52;101681.66;5071599;28;20063;-58
2024/04/18 20:59:42;;;;;;;11.07;4.45;;;;;;;12.00;48.69;101687.75;5071477;28;20064;-59
2024/04/18 21:02:08;;;;;;;12.73;4.90;;;;;;;11.80;49.03;101685.31;5071419;28;20048;-59
2024/04/18 21:04:35;;;;;;;9.35;4.75;;;;;;;11.68;49.00;101682.16;5050049;28;20056;-60
2024/04/18 21:07:01;;;;;;;12.40;4.60;;;;;;;11.77;49.03;101686.72;5064503;28;20510;-59
2024/04/18 21:09:27;;;;;;;9.63;5.20;;;;;;;11.91;48.85;101681.25;5042669;28;20049;-63
2024/04/18 21:11:54;;;;;;;10.82;5.18;;;;;;;11.98;48.70;101676.19;5045864;28;20053;-57
2024/04/18 21:14:20;;;;;;;10.98;5.20;;;;;;;12.00;48.90;101680.28;5024540;28;20052;-58
2024/04/18 21:16:46;;;;;;;10.43;4.47;;;;;;;11.96;48.28;101670.16;5049343;28;20067;-59
2024/04/18 21:19:12;;;;;;;8.73;4.22;;;;;;;11.80;49.00;101675.06;5041974;28;20057;-58
2024/04/18 21:21:39;;;;;;;10.95;3.92;;;;;;;11.86;48.73;101673.88;5051433;28;20499;-59
2024/04/18 21:24:05;;;;;;;9.52;3.70;;;;;;;11.88;48.54;101670.81;5054514;28;20067;-56
2024/04/18 21:26:47;;;;;;;12.65;3.90;;;;;;;11.96;48.13;101670.16;5053017;28;20071;-57
2024/04/18 21:29:14;;;;;;;9.18;4.07;;;;;;;11.76;48.40;101681.50;5055930;28;20064;-58
2024/04/18 21:31:41;;;;;;;8.23;3.63;;;;;;;11.62;48.92;101669.50;5050796;28;20053;-59
2024/04/18 21:34:07;;;;;;;10.27;3.45;;;;;;;11.82;48.34;101672.03;5050784;28;20059;-56
2024/04/18 21:36:36;;;;;;;9.13;3.15;;;;;;;11.93;48.19;101673.50;5052387;28;20068;-54
2024/04/18 21:39:03;;;;;;;9.27;3.10;;;;;;;11.86;48.14;101682.16;5070047;28;20052;-58
2024/04/18 21:41:30;;;;;;;7.25;2.80;;;;;;;11.96;47.91;101683.97;5053886;28;20056;-60
2024/04/18 21:43:56;;;;;;;7.20;3.08;;;;;;;12.11;47.65;101684.56;5051562;28;20052;-60
2024/04/18 21:46:23;;;;;;;8.32;3.30;;;;;;;11.85;47.22;101686.06;5069828;28;20074;-61
2024/04/18 21:48:50;;;;;;;9.05;3.42;;;;;;;11.95;47.55;101676.78;5069705;28;20399;-57
2024/04/18 21:51:16;;;;;;;4.80;2.30;;;;;;;11.77;47.51;101680.38;5068635;28;20059;-58
2024/04/18 21:53:42;;;;;;;5.70;2.45;;;;;;;11.30;48.64;101686.75;5033512;28;20148;-58
2024/04/18 21:56:09;;;;;;;5.55;2.40;;;;;;;11.17;49.67;101690.25;5053309;28;20063;-58
2024/04/18 21:58:35;;;;;;;4.95;2.50;;;;;;;10.95;50.54;101676.13;5069691;28;20063;-61
2024/04/18 22:01:02;;;;;;;6.03;2.13;;;;;;;11.03;50.67;101676.34;5046531;28;20055;-59
2024/04/18 22:03:28;;;;;;;5.22;2.35;;;;;;;11.28;50.18;101677.94;5068856;28;20056;-60
2024/04/18 22:05:56;;;;;;;5.85;2.20;;;;;;;11.36;50.33;101685.59;5066123;28;20411;-63
2024/04/18 22:08:23;;;;;;;6.07;2.70;;;;;;;11.42;50.43;101683.59;5049705;28;20063;-58
2024/04/18 22:10:49;;;;;;;6.70;2.50;;;;;;;11.36;50.15;101682.84;5066393;28;20052;-55
2024/04/18 22:13:15;;;;;;;3.72;1.90;;;;;;;11.38;50.15;101692.44;5052844;28;20062;-59
2024/04/18 22:15:41;;;;;;;6.32;2.65;;;;;;;11.29;50.78;101688.72;5048739;28;20068;-56
2024/04/18 22:18:08;;;;;;;7.13;2.60;;;;;;;11.56;51.30;101695.53;5056445;28;20060;-57
2024/04/18 22:20:34;;;;;;;5.07;2.42;;;;;;;11.43;52.51;101696.25;5068396;28;20059;-56
2024/04/18 22:23:13;;;;;;;6.15;2.72;;;;;;;11.30;52.27;101695.03;5055788;28;20052;-57
2024/04/18 22:25:40;;;;;;;6.25;2.30;;;;;;;11.50;52.63;101689.28;5058361;28;20067;-58
2024/04/18 22:28:08;;;;;;;7.47;2.60;;;;;;;11.25;52.80;101690.41;5070249;28;20499;-57
2024/04/18 22:30:34;;;;;;;5.20;2.42;;;;;;;11.34;52.19;101685.06;5069039;28;20052;-57
2024/04/18 22:33:01;;;;;;;7.05;3.05;;;;;;;11.24;53.09;101691.50;5069783;28;20068;-65
2024/04/18 22:35:27;;;;;;;5.25;2.80;;;;;;;11.28;53.51;101694.50;5048552;28;20063;-58
2024/04/18 22:37:53;;;;;;;8.05;2.83;;;;;;;11.07;54.38;101684.84;5022694;28;20071;-60
2024/04/18 22:40:19;;;;;;;5.68;2.75;;;;;;;10.96;54.81;101689.66;5052354;28;20064;-57
2024/04/18 22:42:46;;;;;;;7.38;3.00;;;;;;;11.02;54.38;101685.72;5068909;28;20052;-57
2024/04/18 22:45:12;;;;;;;6.85;3.13;;;;;;;11.29;53.53;101693.41;5061464;28;20056;-61
2024/04/18 22:47:38;;;;;;;5.93;2.92;;;;;;;10.94;54.73;101693.81;5040125;28;20067;-61
2024/04/18 22:50:05;;;;;;;7.38;2.80;;;;;;;10.93;54.57;101692.16;5041724;28;20052;-61
2024/04/18 22:52:31;;;;;;;8.15;2.90;;;;;;;10.87;55.21;101685.06;5043679;28;20218;-61
2024/04/18 22:54:57;;;;;;;8.77;3.17;;;;;;;10.74;55.93;101680.25;5055239;28;20052;-62
2024/04/18 22:57:24;;;;;;;9.88;3.55;;;;;;;10.72;56.59;101672.25;5065935;28;20072;-61
2024/04/18 22:59:50;;;;;;;6.75;3.10;;;;;;;10.87;56.20;101674.84;5057157;28;20061;-61
2024/04/18 23:02:17;;;;;;;9.05;3.65;;;;;;;10.97;55.94;101674.75;5048926;28;20060;-58
2024/04/18 23:04:43;;;;;;;7.15;3.13;;;;;;;10.96;55.97;101673.09;5012993;28;20084;-60
2024/04/18 23:07:09;;;;;;;6.65;2.95;;;;;;;11.04;56.35;101661.44;5029124;28;20076;-60
2024/04/18 23:09:35;;;;;;;8.43;2.95;;;;;;;10.90;56.83;101673.44;5036024;28;20056;-60
2024/04/18 23:12:02;;;;;;;9.07;3.40;;;;;;;10.71;57.53;101664.28;5047288;28;20056;-60
2024/04/18 23:14:28;;;;;;;6.05;3.00;;;;;;;10.55;58.52;101665.56;5038954;28;20071;-59
2024/04/18 23:16:55;;;;;;;6.70;3.40;;;;;;;10.68;59.05;101660.19;5029870;28;20061;-63
2024/04/18 23:19:21;;;;;;;13.48;3.42;;;;;;;10.79;58.38;101663.66;4997048;28;20057;-61
2024/04/18 23:21:48;;;;;;;7.50;3.22;;;;;;;10.73;58.92;101662.06;5028882;28;20592;-60
2024/04/18 23:24:33;;;;;;;7.40;3.30;;;;;;;10.68;60.37;101659.34;5037704;28;20053;-61
2024/04/18 23:26:59;;;;;;;7.95;3.42;;;;;;;10.66;60.56;101664.31;5047373;28;20048;-60
2024/04/18 23:29:29;;;;;;;6.43;3.10;;;;;;;10.80;60.16;101660.59;5029822;28;20063;-61
2024/04/18 23:31:56;;;;;;;7.78;3.47;;;;;;;10.97;59.87;101655.44;5003957;28;20061;-61
2024/04/18 23:34:22;;;;;;;8.00;3.30;;;;;;;10.82;60.12;101654.78;5029302;28;20064;-61
2024/04/18 23:37:01;;;;;;;7.25;3.60;;;;;;;10.93;60.62;101648.88;5035793;28;20056;-60
2024/04/18 23:39:27;;;;;;;7.90;3.33;;;;;;;10.86;61.33;101648.41;5035527;28;20068;-60
2024/04/18 23:41:54;;;;;;;8.73;3.15;;;;;;;10.84;61.68;101636.88;5068330;28;20055;-61
2024/04/18 23:44:20;;;;;;;7.53;3.53;;;;;;;10.69;63.17;101648.03;5036934;28;20060;-61
2024/04/18 23:46:46;;;;;;;9.85;3.75;;;;;;;10.75;62.89;101635.03;5072571;28;20052;-60
2024/04/18 23:49:13;;;;;;;9.68;4.18;;;;;;;10.70;62.95;101627.66;5027865;28;20071;-61
2024/04/18 23:51:40;;;;;;;8.35;3.67;;;;;;;10.76;63.05;101636.66;5053987;28;20518;-61
2024/04/18 23:54:09;;;;;;;9.23;3.67;;;;;;;10.79;62.98;101636.91;5072405;28;20074;-61
2024/04/18 23:56:36;;;;;;;8.97;4.50;;;;;;;10.91;63.10;101634.56;5070013;28;20063;-63
2024/04/18 23:59:02;;;;;;;7.88;3.83;;;;;;;10.89;63.25;101622.19;5047944;28;20292;-60
